Content
SEND FEEDBACK

Daily
Averages
Monthly
Summary
Norway

SANDNESSJOEN, NORWAY


Home > Europe > Norway
Elevation: 56 feet     Latitude: 65 58N     Longitude: 012 28E

WEATHER
 
SELECT A DAY
Number of Records: 104,409;   Date Range: 7/1/96 - 7/31/14
 
SHARE

PRINT THIS DATA

[ ← Previous Day ]
WEATHER ALMANAC - JANUARY 31, 2013
[ Next Day → ]
[ °C ]   °F
Weather ElementAverageHighLow
Temperature34.6 °F37.4 °F (6:50 am)32 °F (2:20 pm)
Dewpoint28.4 °F32 °F (7:50 pm)23 °F (7:50 am)
Humidity79.1 %93 % (2:20 pm)56 % (7:50 am)
Barometer28.94 in29.03 in (11:50 pm)28.82 in (5:20 am)
Wind Speed9.5 mph17.3 mph (8:50 pm)
Wind Gust29.9 mph (8:50 pm)
Weather ElementAverage
Visibility5.9 mi
Wind DirectionSSW (189.2 °)

Weather ElementTotal
Precipitation---
Heating Degree Days30.3 (Base 65)
Averaged from 36 records on January 31, 2013
WEATHER CONDITIONS BREAKOUT
WIND DIRECTION BREAKOUT
WEATHER BY HOUR - JANUARY 31, 2013
[ °C ]   °F
Local TimeTemperatureDewpointHumidityBarometerVisibilityWind DirectionWind SpeedGust SpeedPrecipitationEventsConditions
5:20 AM33.8 °F26.6 °F75 %28.82 in6.2 miNNE (20°)12.7 mphScattered Clouds
6:20 AM33.8 °F26.6 °F75 %28.85 in6.2 miNNE (20°)12.7 mphScattered Clouds
6:50 AM37.4 °F24.8 °F60 %28.85 in6.2 miNorth (10°)11.5 mphScattered Clouds
7:20 AM37.4 °F24.8 °F60 %28.85 in6.2 miNorth (360°)13.8 mphPartly Cloudy
7:50 AM37.4 °F23.0 °F56 %28.85 in6.2 miNorth (360°)13.8 mphScattered Clouds
8:20 AM37.4 °F24.8 °F60 %28.85 in6.2 miNorth (360°)11.5 mph23.0 mphMostly Cloudy
8:50 AM37.4 °F26.6 °F65 %28.88 in6.2 miNorth (360°)9.2 mphMostly Cloudy
9:20 AM37.4 °F26.6 °F65 %28.91 in6.2 miNorth (360°)10.4 mphMostly Cloudy
9:50 AM35.6 °F30.2 °F81 %28.91 in6.2 miNNW (330°)15.0 mphScattered Clouds
10:20 AM35.6 °F28.4 °F75 %28.91 in6.2 miNW (320°)15.0 mphScattered Clouds
10:50 AM35.6 °F28.4 °F75 %28.94 in6.2 miNNW (340°)10.4 mphMostly Cloudy
11:20 AM35.6 °F28.4 °F75 %28.94 in6.2 miVariable4.6 mphMostly Cloudy
11:50 AM35.6 °F28.4 °F75 %28.94 in6.2 miVariable5.8 mphMostly Cloudy
12:20 PM35.6 °F30.2 °F81 %28.94 in6.2 miNorth (360°)5.8 mph18.4 mphMostly Cloudy
12:50 PM35.6 °F28.4 °F75 %28.94 in6.2 miNNW (340°)10.4 mphMostly Cloudy
1:20 PM37.4 °F28.4 °F70 %28.94 in6.2 miNNW (340°)9.2 mphMostly Cloudy
1:50 PM35.6 °F26.6 °F70 %28.97 in6.2 miNorth (350°)12.7 mphSnowLight Snow Showers
2:20 PM32.0 °F30.2 °F93 %28.97 in6.2 miNNE (20°)3.5 mphSnowLight Small Hail Showers
2:50 PM32.0 °F30.2 °F93 %28.97 in6.2 miEast (80°)3.5 mphSnowLight Small Hail Showers
3:20 PM32.0 °F30.2 °F93 %28.97 in6.2 miENE (70°)9.2 mphMostly Cloudy
3:50 PM32.0 °F28.4 °F87 %28.97 in6.2 miVariable3.5 mphMostly Cloudy
4:20 PM32.0 °F24.8 °F75 %28.97 in6.2 miVariable3.5 mphSnowLight Snow Showers
4:50 PM33.8 °F28.4 °F81 %29.00 in6.2 miVariable4.6 mphMostly Cloudy
5:20 PM32.0 °F28.4 °F87 %29.00 in6.2 miVariable4.6 mphMostly Cloudy
5:50 PM33.8 °F28.4 °F81 %29.00 in6.2 miVariable6.9 mphMostly Cloudy
6:50 PM33.8 °F30.2 °F87 %28.97 in6.2 miVariable4.6 mphSnowLight Snow Showers
7:20 PM33.8 °F30.2 °F87 %28.97 in6.2 miWest (260°)8.1 mphSnowLight Snow Showers
7:50 PM33.8 °F32.0 °F93 %28.94 in1.2 miWest (260°)10.4 mphSnowSnow Showers
8:20 PM33.8 °F32.0 °F93 %28.97 in3.1 miNW (320°)13.8 mph25.3 mphSnowLight Snow Showers
8:50 PM33.8 °F30.2 °F87 %28.97 in4.3 miNNW (330°)17.3 mph29.9 mphSnowLight Snow Showers
9:20 PM33.8 °F30.2 °F87 %28.97 in6.2 miNorth (350°)11.5 mphSnowLight Snow Showers
9:50 PM33.8 °F28.4 °F81 %28.97 in6.2 miNorth (360°)13.8 mph27.6 mphSnowLight Snow Showers
10:20 PM33.8 °F30.2 °F87 %29.00 in6.2 miNNE (30°)13.8 mph26.5 mphMostly Cloudy
10:50 PM32.0 °F30.2 °F93 %29.00 in6.2 miENE (70°)5.8 mphSnowLight Small Hail Showers
11:20 PM32.0 °F30.2 °F93 %29.00 in6.2 miEast (100°)8.1 mphMostly Cloudy
11:50 PM35.6 °F28.4 °F75 %29.03 in6.2 miNNW (330°)12.7 mphMostly Cloudy
Hourly data recorded from ENST, located miles away from Sandnessjoen, Norway







STORIES FROM OUR PARTNERS